Time;durP1;ratioP1;P1;durP2;ratioP2;P2;SDS_P1;SDS_P2;PMS_P1;PMS_P2;Temp;Humidity;BMP_temperature;BMP_pressure;BME280_temperature;BME280_humidity;BME280_pressure;Samples;Min_cycle;Max_cycle;Signal;HPM_P1;HPM_P2
2023/11/10 00:02:17;;;;;;;1.75;0.35;;;9.20;99.90;;;;;;5056369;28;20511;-89
2023/11/10 00:04:45;;;;;;;0.30;0.20;;;9.20;99.90;;;;;;5057918;28;20046;-88
2023/11/10 00:07:11;;;;;;;1.48;0.28;;;9.20;99.90;;;;;;5057079;28;20020;-88
2023/11/10 00:09:36;;;;;;;0.73;0.30;;;9.20;99.90;;;;;;5075173;28;20047;-88
2023/11/10 00:12:02;;;;;;;0.75;0.30;;;9.20;99.90;;;;;;5056496;28;20043;-89
2023/11/10 00:14:29;;;;;;;0.77;0.30;;;9.30;99.90;;;;;;5057531;28;20070;-88
2023/11/10 00:16:56;;;;;;;0.50;0.20;;;9.30;99.90;;;;;;5056650;28;20017;-88
2023/11/10 00:19:21;;;;;;;0.90;0.30;;;9.30;99.90;;;;;;5075133;28;20032;-89
2023/11/10 00:21:49;;;;;;;0.30;0.17;;;9.30;99.90;;;;;;5057698;28;20020;-88
2023/11/10 00:24:16;;;;;;;1.10;0.15;;;9.30;99.90;;;;;;5057276;28;20523;-88
2023/11/10 00:26:41;;;;;;;0.35;0.20;;;9.40;99.90;;;;;;5075327;28;20020;-88
2023/11/10 00:29:07;;;;;;;0.10;0.10;;;9.40;99.90;;;;;;5062033;28;20417;-88
2023/11/10 00:31:33;;;;;;;1.48;0.22;;;9.40;99.90;;;;;;5061055;28;20445;-88
2023/11/10 00:33:59;;;;;;;0.28;0.10;;;9.40;99.90;;;;;;5061133;28;20017;-88
2023/11/10 00:36:24;;;;;;;0.20;0.10;;;9.40;99.90;;;;;;5061107;28;20111;-88
2023/11/10 00:38:50;;;;;;;0.30;0.10;;;9.40;99.90;;;;;;5077150;28;20025;-88
2023/11/10 00:41:16;;;;;;;0.70;0.20;;;9.40;99.90;;;;;;5077374;28;20051;-88
2023/11/10 00:43:42;;;;;;;0.50;0.20;;;9.50;99.90;;;;;;5059459;28;20480;-88
2023/11/10 00:46:07;;;;;;;0.40;0.20;;;9.50;99.90;;;;;;5059767;28;20035;-88
2023/11/10 00:48:33;;;;;;;0.30;0.20;;;9.50;99.90;;;;;;5059662;28;20020;-88
2023/11/10 00:50:59;;;;;;;2.17;0.30;;;9.50;99.90;;;;;;5059187;28;20023;-88
2023/11/10 00:53:26;;;;;;;0.15;0.10;;;9.50;99.90;;;;;;5059540;28;20107;-88
2023/11/10 00:55:54;;;;;;;0.60;0.20;;;9.50;99.90;;;;;;5076470;28;20024;-88
2023/11/10 00:58:20;;;;;;;1.35;0.20;;;9.60;99.90;;;;;;5059582;28;20062;-88
2023/11/10 01:00:46;;;;;;;0.65;0.20;;;9.60;99.90;;;;;;5059162;28;20029;-88
2023/11/10 01:03:12;;;;;;;0.60;0.13;;;9.60;99.90;;;;;;5077086;28;20108;-88
2023/11/10 01:05:38;;;;;;;0.90;0.38;;;9.60;99.90;;;;;;5076879;28;20020;-88
2023/11/10 01:08:05;;;;;;;0.40;0.20;;;9.60;99.90;;;;;;5058740;28;20449;-88
2023/11/10 01:10:32;;;;;;;0.25;0.20;;;9.60;99.90;;;;;;5059154;28;20048;-88
2023/11/10 01:12:58;;;;;;;1.02;0.20;;;9.60;99.90;;;;;;5076510;28;20166;-88
2023/11/10 01:15:25;;;;;;;1.17;0.30;;;9.60;99.90;;;;;;5059181;28;20017;-88
2023/11/10 01:17:50;;;;;;;0.70;0.22;;;9.60;99.90;;;;;;5058753;28;20198;-88
2023/11/10 01:20:16;;;;;;;1.63;0.20;;;9.60;99.90;;;;;;5058921;28;20051;-88
2023/11/10 01:22:42;;;;;;;0.47;0.20;;;9.70;99.90;;;;;;5058804;28;20032;-89
2023/11/10 01:25:09;;;;;;;1.58;0.30;;;9.70;99.90;;;;;;5058395;28;20020;-89
2023/11/10 01:27:34;;;;;;;1.95;0.32;;;9.70;99.90;;;;;;5076349;28;20123;-88
2023/11/10 01:30:00;;;;;;;0.20;0.20;;;9.70;99.90;;;;;;5058377;28;20044;-90
2023/11/10 01:32:26;;;;;;;0.10;0.10;;;9.60;99.90;;;;;;5058909;28;20070;-87
2023/11/10 01:34:54;;;;;;;0.85;0.28;;;9.60;99.90;;;;;;5058320;28;20051;-88
2023/11/10 01:37:20;;;;;;;1.05;0.20;;;9.60;99.90;;;;;;5059103;28;20081;-88
2023/11/10 01:39:46;;;;;;;0.60;0.20;;;9.60;99.90;;;;;;5057969;28;20028;-89
2023/11/10 01:42:12;;;;;;;1.48;0.22;;;9.60;99.90;;;;;;5058588;28;20020;-87
2023/11/10 01:44:38;;;;;;;2.05;0.20;;;9.60;99.90;;;;;;5058701;28;20089;-88
2023/11/10 01:47:05;;;;;;;1.65;0.28;;;9.60;99.90;;;;;;5075789;28;20062;-87
2023/11/10 01:49:32;;;;;;;1.45;0.28;;;9.60;99.90;;;;;;5058438;28;20105;-87
2023/11/10 01:51:59;;;;;;;1.85;0.20;;;9.60;99.90;;;;;;5058133;28;20032;-88
2023/11/10 01:54:29;;;;;;;2.15;0.52;;;9.60;99.90;;;;;;5058211;28;20028;-88
2023/11/10 01:56:55;;;;;;;0.57;0.20;;;9.60;99.90;;;;;;5057817;28;20112;-88
2023/11/10 01:59:20;;;;;;;2.88;0.47;;;9.60;99.90;;;;;;5058606;28;20021;-88
2023/11/10 02:01:47;;;;;;;0.77;0.22;;;9.50;99.90;;;;;;5076168;28;20032;-87
2023/11/10 02:04:16;;;;;;;1.58;0.20;;;9.60;99.90;;;;;;5058267;28;20025;-88
2023/11/10 02:06:44;;;;;;;0.50;0.20;;;9.60;99.90;;;;;;5058238;28;20028;-88
2023/11/10 02:09:10;;;;;;;0.73;0.30;;;9.50;99.90;;;;;;5057626;28;20098;-88
2023/11/10 02:11:38;;;;;;;0.32;0.15;;;9.60;99.90;;;;;;5058920;28;20043;-88
2023/11/10 02:14:05;;;;;;;1.98;0.30;;;9.50;99.90;;;;;;5057796;28;20058;-88
2023/11/10 02:16:30;;;;;;;1.42;0.20;;;9.50;99.90;;;;;;5058143;28;20084;-88
2023/11/10 02:18:57;;;;;;;0.75;0.55;;;9.50;99.90;;;;;;5058083;28;20086;-88
2023/11/10 02:21:22;;;;;;;0.13;0.05;;;9.50;99.90;;;;;;5058167;28;20021;-88
2023/11/10 02:24:01;;;;;;;1.75;0.25;;;9.50;99.90;;;;;;5075673;28;20028;-88
2023/11/10 02:26:27;;;;;;;0.43;0.20;;;9.50;99.90;;;;;;5057727;28;20467;-88
2023/11/10 02:28:53;;;;;;;3.50;0.20;;;9.50;99.90;;;;;;5056907;28;20119;-88
2023/11/10 02:31:19;;;;;;;0.70;0.20;;;9.50;99.90;;;;;;5057641;28;20028;-88
2023/11/10 02:33:48;;;;;;;2.65;0.38;;;9.50;99.90;;;;;;5057387;28;20078;-88
2023/11/10 02:36:14;;;;;;;0.30;0.20;;;9.50;99.90;;;;;;5057426;28;20043;-88
2023/11/10 02:38:42;;;;;;;0.40;0.13;;;9.40;99.90;;;;;;5075146;28;20020;-88
2023/11/10 02:41:08;;;;;;;0.82;0.20;;;9.50;99.90;;;;;;5057074;28;20115;-89
2023/11/10 02:43:34;;;;;;;0.57;0.28;;;9.40;99.90;;;;;;5057319;28;20115;-89
2023/11/10 02:46:00;;;;;;;0.38;0.20;;;9.50;99.90;;;;;;5074899;28;20066;-88
2023/11/10 02:48:27;;;;;;;1.50;0.30;;;9.50;99.90;;;;;;5057626;28;20064;-88
2023/11/10 02:50:53;;;;;;;0.60;0.20;;;9.50;99.90;;;;;;5056027;28;20480;-88
2023/11/10 02:53:19;;;;;;;0.95;0.20;;;9.50;99.90;;;;;;5057594;28;20518;-88
2023/11/10 02:55:45;;;;;;;0.65;0.20;;;9.50;99.90;;;;;;5057508;28;20051;-87
2023/11/10 02:58:11;;;;;;;0.93;0.35;;;9.50;99.90;;;;;;5056895;28;20448;-87
2023/11/10 03:00:37;;;;;;;0.45;0.28;;;9.50;99.90;;;;;;5056801;28;20120;-87
2023/11/10 03:03:06;;;;;;;0.50;0.40;;;9.50;99.90;;;;;;5074208;28;20074;-88
2023/11/10 03:05:32;;;;;;;1.48;0.22;;;9.50;99.90;;;;;;5056946;28;20448;-88
2023/11/10 03:07:58;;;;;;;0.90;0.20;;;9.50;99.90;;;;;;5057225;28;20032;-88
2023/11/10 03:10:23;;;;;;;0.20;0.10;;;9.50;99.90;;;;;;5053397;28;20036;-87
2023/11/10 03:12:50;;;;;;;2.53;0.30;;;9.50;99.90;;;;;;5054072;28;20025;-87
2023/11/10 03:15:17;;;;;;;2.78;0.32;;;9.50;99.90;;;;;;5053280;28;20113;-88
2023/11/10 03:17:42;;;;;;;0.95;0.30;;;9.50;99.90;;;;;;5053746;28;20084;-87
2023/11/10 03:20:09;;;;;;;0.52;0.20;;;9.50;99.90;;;;;;5053004;28;20079;-87
2023/11/10 03:22:35;;;;;;;0.10;0.10;;;9.50;99.90;;;;;;5053994;28;20060;-88
2023/11/10 03:25:01;;;;;;;1.30;0.22;;;9.50;99.90;;;;;;5053654;28;20025;-88
2023/11/10 03:27:27;;;;;;;0.20;0.20;;;9.50;99.90;;;;;;5053404;28;20025;-88
2023/11/10 03:29:53;;;;;;;1.48;0.82;;;9.50;99.90;;;;;;5053374;28;20024;-88
2023/11/10 03:32:19;;;;;;;0.10;0.10;;;9.60;99.90;;;;;;5053500;28;20449;-88
2023/11/10 03:34:45;;;;;;;4.03;0.30;;;9.60;99.90;;;;;;5053738;28;20025;-88
2023/11/10 03:37:11;;;;;;;1.35;0.20;;;9.60;99.90;;;;;;5053145;28;20024;-88
2023/11/10 03:39:38;;;;;;;1.08;0.30;;;9.60;99.90;;;;;;5053324;28;20033;-88
2023/11/10 03:42:04;;;;;;;0.20;0.10;;;9.60;99.90;;;;;;5054152;28;20437;-87
2023/11/10 03:44:29;;;;;;;0.82;0.13;;;9.60;99.90;;;;;;5053364;28;20043;-88
2023/11/10 03:47:02;;;;;;;0.40;0.13;;;9.60;99.90;;;;;;5054200;28;20069;-89
2023/11/10 03:49:28;;;;;;;0.52;0.28;;;9.60;99.90;;;;;;5053612;28;20342;-88
2023/11/10 03:51:54;;;;;;;0.95;0.20;;;9.60;99.90;;;;;;5053566;28;20025;-88
2023/11/10 03:54:20;;;;;;;0.82;0.20;;;9.60;99.90;;;;;;5052770;28;20116;-87
2023/11/10 03:56:48;;;;;;;0.13;0.10;;;9.60;99.90;;;;;;5054466;28;20114;-87
2023/11/10 03:59:15;;;;;;;0.60;0.20;;;9.60;99.90;;;;;;5052787;28;20377;-86
2023/11/10 04:01:40;;;;;;;0.52;0.17;;;9.60;99.90;;;;;;5055756;28;20134;-87
2023/11/10 04:04:09;;;;;;;0.52;0.20;;;9.60;99.90;;;;;;5056891;28;20473;-87
2023/11/10 04:06:35;;;;;;;0.10;0.10;;;9.60;99.90;;;;;;5057430;28;20024;-86
2023/11/10 04:09:02;;;;;;;1.60;0.25;;;9.60;99.90;;;;;;5064346;28;20044;-87
2023/11/10 04:11:29;;;;;;;0.73;0.20;;;9.60;99.90;;;;;;5060730;28;20028;-86
2023/11/10 04:13:55;;;;;;;1.00;0.40;;;9.60;99.90;;;;;;5078279;28;20024;-87
2023/11/10 04:16:22;;;;;;;0.60;0.20;;;9.60;99.90;;;;;;5060058;28;20346;-88
2023/11/10 04:18:49;;;;;;;0.50;0.28;;;9.60;99.90;;;;;;5060282;28;20025;-89
2023/11/10 04:21:17;;;;;;;0.63;0.10;;;9.60;99.90;;;;;;5060011;28;20017;-86
2023/11/10 04:23:42;;;;;;;1.02;0.10;;;9.60;99.90;;;;;;5078004;28;20025;-88
2023/11/10 04:26:10;;;;;;;3.60;0.30;;;9.50;99.90;;;;;;5059596;28;20056;-88
2023/11/10 04:28:38;;;;;;;1.30;0.05;;;9.50;99.90;;;;;;5077928;28;20035;-88
2023/11/10 04:31:04;;;;;;;1.05;0.10;;;9.50;99.90;;;;;;5059543;28;20017;-88
2023/11/10 04:33:30;;;;;;;0.20;0.20;;;9.50;99.90;;;;;;5059671;28;20456;-87
2023/11/10 04:35:56;;;;;;;2.30;0.30;;;9.40;99.90;;;;;;5060104;28;20111;-87
2023/11/10 04:38:21;;;;;;;0.17;0.08;;;9.40;99.90;;;;;;5059592;28;20459;-88
2023/11/10 04:40:47;;;;;;;1.75;0.20;;;9.40;99.90;;;;;;5077458;28;20024;-88
2023/11/10 04:43:13;;;;;;;1.17;0.10;;;9.40;99.90;;;;;;5059239;28;20036;-88
2023/11/10 04:45:38;;;;;;;0.22;0.10;;;9.30;99.90;;;;;;5059933;28;20099;-87
2023/11/10 04:48:04;;;;;;;0.30;0.10;;;9.40;99.90;;;;;;5059180;28;20020;-88
2023/11/10 04:50:30;;;;;;;1.10;0.10;;;9.30;99.90;;;;;;5059998;28;20046;-88
2023/11/10 04:52:56;;;;;;;0.50;0.10;;;9.30;99.90;;;;;;5059610;28;20032;-88
2023/11/10 04:55:22;;;;;;;1.55;0.17;;;9.40;99.90;;;;;;5059149;28;20020;-88
2023/11/10 04:57:48;;;;;;;0.20;0.10;;;9.30;99.90;;;;;;5077480;28;20016;-88
2023/11/10 05:00:14;;;;;;;1.60;0.10;;;9.30;99.90;;;;;;5059369;28;20024;-88
2023/11/10 05:02:44;;;;;;;0.52;0.10;;;9.30;99.90;;;;;;5059425;28;20039;-88
2023/11/10 05:05:13;;;;;;;0.77;0.10;;;9.30;99.90;;;;;;5058910;28;20372;-88
2023/11/10 05:07:40;;;;;;;0.10;0.10;;;9.30;99.90;;;;;;5077154;28;20016;-88
2023/11/10 05:10:07;;;;;;;3.20;0.20;;;9.20;99.90;;;;;;5058918;28;20043;-88
2023/11/10 05:12:37;;;;;;;3.15;0.10;;;9.20;99.90;;;;;;5058411;28;20027;-88
2023/11/10 05:15:07;;;;;;;2.28;0.30;;;9.20;99.90;;;;;;5058500;28;20111;-89
2023/11/10 05:17:34;;;;;;;0.20;0.08;;;9.20;99.90;;;;;;5059053;28;20483;-88
2023/11/10 05:20:00;;;;;;;0.25;0.08;;;9.20;99.90;;;;;;5058869;28;20024;-89
2023/11/10 05:22:28;;;;;;;1.08;0.17;;;9.10;99.90;;;;;;5058927;28;20443;-88
2023/11/10 05:24:54;;;;;;;0.20;0.10;;;9.10;99.90;;;;;;5077043;28;20056;-88
2023/11/10 05:27:19;;;;;;;0.20;0.10;;;9.10;99.90;;;;;;5058577;28;20032;-88
2023/11/10 05:29:45;;;;;;;1.23;0.10;;;9.10;99.90;;;;;;5058879;28;20074;-88
2023/11/10 05:32:11;;;;;;;0.80;0.35;;;9.10;99.90;;;;;;5058415;28;20396;-88
2023/11/10 05:34:37;;;;;;;0.57;0.20;;;9.10;99.90;;;;;;5058763;28;20032;-88
2023/11/10 05:37:03;;;;;;;2.28;0.20;;;9.10;99.90;;;;;;5058639;28;20063;-88
2023/11/10 05:39:28;;;;;;;1.10;0.50;;;9.00;99.90;;;;;;5058839;28;20048;-87
2023/11/10 05:41:54;;;;;;;1.05;0.20;;;9.00;99.90;;;;;;5058747;28;20024;-87
2023/11/10 05:44:20;;;;;;;1.00;0.20;;;9.00;99.90;;;;;;5058452;28;20024;-87
2023/11/10 05:46:45;;;;;;;0.40;0.22;;;9.00;99.90;;;;;;5076367;28;20035;-87
2023/11/10 05:49:11;;;;;;;0.73;0.20;;;9.00;99.90;;;;;;5058219;28;20464;-87
2023/11/10 05:51:37;;;;;;;3.25;0.20;;;9.00;99.90;;;;;;5058715;28;20043;-87
2023/11/10 05:54:02;;;;;;;4.47;0.30;;;9.00;99.90;;;;;;5075489;28;20071;-87
2023/11/10 05:56:28;;;;;;;1.08;0.15;;;9.00;99.90;;;;;;5058415;28;20020;-87
2023/11/10 05:58:54;;;;;;;1.35;0.10;;;9.00;99.90;;;;;;5057851;28;20048;-86
2023/11/10 06:01:23;;;;;;;0.55;0.17;;;9.00;99.90;;;;;;5057897;28;20032;-87
2023/11/10 06:03:49;;;;;;;0.40;0.10;;;9.10;99.90;;;;;;5058131;28;20027;-86
2023/11/10 06:06:15;;;;;;;1.38;0.10;;;9.00;99.90;;;;;;5057304;28;20021;-87
2023/11/10 06:08:40;;;;;;;0.30;0.20;;;9.00;99.90;;;;;;5058000;28;20045;-87
2023/11/10 06:11:06;;;;;;;0.70;0.20;;;9.00;99.90;;;;;;5075613;28;20028;-87
2023/11/10 06:13:33;;;;;;;0.88;0.13;;;9.00;99.90;;;;;;5075491;28;20147;-87
2023/11/10 06:15:59;;;;;;;1.40;0.25;;;9.00;99.90;;;;;;5075631;28;20016;-87
2023/11/10 06:18:25;;;;;;;0.80;0.10;;;9.00;99.90;;;;;;5057274;28;20020;-87
2023/11/10 06:20:51;;;;;;;0.32;0.10;;;9.00;99.90;;;;;;5057795;28;20016;-87
2023/11/10 06:23:17;;;;;;;0.57;0.20;;;8.90;99.90;;;;;;5057227;28;20031;-87
2023/11/10 06:25:42;;;;;;;0.10;0.10;;;8.90;99.90;;;;;;5058329;28;20056;-87
2023/11/10 06:28:08;;;;;;;1.15;0.20;;;8.90;99.90;;;;;;5057348;28;20078;-87
2023/11/10 06:30:33;;;;;;;0.40;0.20;;;8.90;99.90;;;;;;5058002;28;20043;-87
2023/11/10 06:32:59;;;;;;;0.32;0.10;;;9.00;99.90;;;;;;5057988;28;20032;-87
2023/11/10 06:35:25;;;;;;;0.57;0.25;;;9.00;99.90;;;;;;5075091;28;20445;-87
2023/11/10 06:37:50;;;;;;;0.55;0.10;;;9.00;99.90;;;;;;5057678;28;20047;-87
2023/11/10 06:40:16;;;;;;;0.30;0.05;;;8.90;99.90;;;;;;5057290;28;20016;-88
2023/11/10 06:42:41;;;;;;;0.17;0.17;;;8.90;99.90;;;;;;5057776;28;20021;-87
2023/11/10 06:45:07;;;;;;;2.25;0.20;;;8.90;99.90;;;;;;5057131;28;20031;-87
2023/11/10 06:47:33;;;;;;;0.50;0.10;;;8.90;99.90;;;;;;5057814;28;20024;-88
2023/11/10 06:49:59;;;;;;;0.50;0.20;;;8.90;99.90;;;;;;5057972;28;20017;-88
2023/11/10 06:52:25;;;;;;;1.17;0.20;;;8.90;99.90;;;;;;5057444;28;20487;-88
2023/11/10 06:54:50;;;;;;;0.03;0.03;;;8.90;99.90;;;;;;5057514;28;20056;-88
2023/11/10 06:57:16;;;;;;;0.50;0.20;;;8.90;99.90;;;;;;5057329;28;20032;-87
2023/11/10 06:59:43;;;;;;;0.40;0.20;;;8.90;99.90;;;;;;5056791;28;20033;-88
2023/11/10 07:02:12;;;;;;;0.65;0.10;;;9.00;99.90;;;;;;5056662;28;20453;-88
2023/11/10 07:04:42;;;;;;;2.17;0.25;;;9.00;99.90;;;;;;5056820;28;20021;-87
2023/11/10 07:07:07;;;;;;;1.17;0.20;;;9.00;99.90;;;;;;5056505;28;20457;-89
2023/11/10 07:09:33;;;;;;;0.47;0.25;;;9.00;99.90;;;;;;5056554;28;20162;-88
2023/11/10 07:11:59;;;;;;;1.63;0.40;;;9.00;99.90;;;;;;5057144;28;20111;-88
2023/11/10 07:14:24;;;;;;;0.98;0.30;;;9.10;99.90;;;;;;5074143;28;20029;-88
2023/11/10 07:16:50;;;;;;;0.57;0.30;;;9.10;99.90;;;;;;5056783;28;20115;-88
2023/11/10 07:19:18;;;;;;;1.70;0.30;;;9.10;99.90;;;;;;5073870;28;20095;-88
2023/11/10 07:21:44;;;;;;;0.55;0.20;;;9.10;99.90;;;;;;5056661;28;20021;-87
2023/11/10 07:24:10;;;;;;;2.08;0.50;;;9.10;99.90;;;;;;5056877;28;20060;-89
2023/11/10 07:26:36;;;;;;;2.67;0.30;;;9.10;99.90;;;;;;5056641;28;20035;-89
2023/11/10 07:29:03;;;;;;;0.85;0.30;;;9.10;99.90;;;;;;5056767;28;20392;-88
2023/11/10 07:31:29;;;;;;;1.52;0.32;;;9.20;99.90;;;;;;5056023;28;20029;-87
2023/11/10 07:33:55;;;;;;;1.02;0.30;;;9.20;99.90;;;;;;5056760;28;20364;-87
2023/11/10 07:36:22;;;;;;;0.50;0.30;;;9.20;99.90;;;;;;5055790;28;20055;-87
2023/11/10 07:38:48;;;;;;;1.52;0.28;;;9.20;99.90;;;;;;5074215;28;20017;-87
2023/11/10 07:41:14;;;;;;;2.88;0.40;;;9.20;99.90;;;;;;5056279;28;20078;-86
2023/11/10 07:43:39;;;;;;;2.08;0.30;;;9.20;99.90;;;;;;5045540;28;20029;-87
2023/11/10 07:46:05;;;;;;;2.50;0.30;;;9.20;99.90;;;;;;5054919;28;20025;-87
2023/11/10 07:48:32;;;;;;;0.73;0.22;;;9.20;99.90;;;;;;5053344;28;20016;-88
2023/11/10 07:50:58;;;;;;;2.03;0.50;;;9.20;99.90;;;;;;5036269;28;20038;-88
2023/11/10 07:53:26;;;;;;;1.88;0.30;;;9.30;99.90;;;;;;5053937;28;20029;-88
2023/11/10 07:55:52;;;;;;;1.30;0.20;;;9.30;99.90;;;;;;5036549;28;20025;-88
2023/11/10 07:58:18;;;;;;;1.50;0.38;;;9.40;99.90;;;;;;5036150;28;20021;-87
2023/11/10 08:00:45;;;;;;;0.68;0.22;;;9.40;99.90;;;;;;5035850;28;20025;-87
2023/11/10 08:03:11;;;;;;;1.35;0.30;;;9.50;99.90;;;;;;5053285;28;20122;-87
2023/11/10 08:05:37;;;;;;;1.33;0.30;;;9.50;99.90;;;;;;5036003;28;20033;-87
2023/11/10 08:08:05;;;;;;;0.30;0.20;;;9.60;99.90;;;;;;5036631;28;20078;-87
2023/11/10 08:10:31;;;;;;;0.85;0.20;;;9.60;99.90;;;;;;5031610;28;20521;-87
2023/11/10 08:12:57;;;;;;;1.65;0.22;;;9.70;99.90;;;;;;5032848;28;20026;-87
2023/11/10 08:15:22;;;;;;;1.83;0.43;;;9.80;99.90;;;;;;5032333;28;20021;-87
2023/11/10 08:17:48;;;;;;;0.88;0.20;;;9.90;99.90;;;;;;5033746;28;20024;-87
2023/11/10 08:20:14;;;;;;;1.98;0.25;;;10.10;99.90;;;;;;5032552;28;20052;-87
2023/11/10 08:22:39;;;;;;;1.35;0.20;;;10.10;99.90;;;;;;5034562;28;20025;-87
2023/11/10 08:25:06;;;;;;;0.50;0.20;;;10.10;99.90;;;;;;5033956;28;20021;-86
2023/11/10 08:27:32;;;;;;;1.30;0.35;;;10.10;99.90;;;;;;5033173;28;20029;-86
2023/11/10 08:29:59;;;;;;;1.02;0.32;;;10.10;99.90;;;;;;5032242;28;20025;-86
2023/11/10 08:32:24;;;;;;;1.40;0.10;;;10.00;99.90;;;;;;5031984;28;20021;-85
2023/11/10 08:34:50;;;;;;;0.60;0.10;;;10.00;99.90;;;;;;5032515;28;20079;-85
2023/11/10 08:37:16;;;;;;;0.82;0.20;;;9.90;99.90;;;;;;5033358;28;20335;-85
2023/11/10 08:39:41;;;;;;;0.65;0.25;;;9.90;99.90;;;;;;5032447;28;20060;-85
2023/11/10 08:42:08;;;;;;;0.40;0.20;;;9.90;99.90;;;;;;5032517;28;20060;-85
2023/11/10 08:44:34;;;;;;;2.53;0.28;;;9.80;99.90;;;;;;5032317;28;20026;-85
2023/11/10 08:47:00;;;;;;;2.20;0.20;;;9.80;99.90;;;;;;5032649;28;20027;-85
2023/11/10 08:49:25;;;;;;;2.67;0.43;;;9.80;99.90;;;;;;5034789;28;20047;-87
2023/11/10 08:51:51;;;;;;;1.33;0.30;;;9.80;99.90;;;;;;5037117;28;20021;-86
2023/11/10 08:54:18;;;;;;;2.40;0.40;;;9.80;99.90;;;;;;5036734;28;20029;-86
2023/11/10 08:56:44;;;;;;;1.35;0.30;;;9.80;99.90;;;;;;5035915;28;20025;-86
2023/11/10 08:59:10;;;;;;;1.17;0.30;;;9.80;99.90;;;;;;5036411;28;20017;-87
2023/11/10 09:01:36;;;;;;;0.82;0.40;;;9.70;99.90;;;;;;5035926;28;20033;-86
2023/11/10 09:04:02;;;;;;;0.68;0.20;;;9.60;99.90;;;;;;5036075;28;20034;-85
2023/11/10 09:06:29;;;;;;;0.68;0.30;;;9.60;99.90;;;;;;5035296;28;20098;-87
2023/11/10 09:08:55;;;;;;;0.65;0.13;;;9.60;99.90;;;;;;5036250;28;20046;-85
2023/11/10 09:11:20;;;;;;;1.70;0.30;;;9.70;99.90;;;;;;5035661;28;20082;-86
2023/11/10 09:13:46;;;;;;;2.55;0.40;;;9.60;99.90;;;;;;5035855;28;20057;-86
2023/11/10 09:16:11;;;;;;;1.55;0.52;;;9.50;99.90;;;;;;5036642;28;20021;-85
2023/11/10 09:18:37;;;;;;;0.55;0.30;;;9.50;99.90;;;;;;5036566;28;20025;-86
2023/11/10 09:21:07;;;;;;;3.33;1.00;;;9.40;99.90;;;;;;5044812;28;20027;-85
2023/11/10 09:23:34;;;;;;;1.50;0.30;;;9.40;99.90;;;;;;5054940;28;20020;-86
2023/11/10 09:26:00;;;;;;;1.92;0.25;;;9.30;99.90;;;;;;5055863;28;20075;-87
2023/11/10 09:28:27;;;;;;;1.83;0.30;;;9.10;99.90;;;;;;5055265;28;20025;-86
2023/11/10 09:30:53;;;;;;;1.70;0.30;;;9.10;99.90;;;;;;5055828;28;20099;-86
2023/11/10 09:33:22;;;;;;;0.40;0.20;;;9.10;99.90;;;;;;5055522;28;20033;-87
2023/11/10 09:35:51;;;;;;;1.17;0.40;;;9.00;99.90;;;;;;5055179;28;20078;-87
2023/11/10 09:38:18;;;;;;;0.52;0.20;;;9.10;99.90;;;;;;5056119;28;20024;-88
2023/11/10 09:40:44;;;;;;;3.53;0.40;;;9.10;99.90;;;;;;5056753;28;20126;-89
2023/11/10 09:43:09;;;;;;;2.47;0.60;;;9.10;99.90;;;;;;5056243;28;20119;-88
2023/11/10 09:45:41;;;;;;;1.10;0.60;;;9.00;99.90;;;;;;5055128;28;20262;-88
2023/11/10 09:48:08;;;;;;;1.55;0.32;;;9.00;99.90;;;;;;5054967;28;20347;-88
2023/11/10 09:50:37;;;;;;;2.97;0.63;;;8.90;99.90;;;;;;5054716;28;20024;-86
2023/11/10 09:53:03;;;;;;;0.45;0.38;;;9.00;99.90;;;;;;5056443;28;20024;-87
2023/11/10 09:55:30;;;;;;;0.85;0.22;;;9.00;99.90;;;;;;5056395;28;20028;-86
2023/11/10 09:57:56;;;;;;;0.75;0.40;;;9.00;99.90;;;;;;5056042;28;20049;-86
2023/11/10 10:00:22;;;;;;;3.95;0.70;;;9.00;99.90;;;;;;5054078;28;20406;-87
2023/11/10 10:02:49;;;;;;;0.50;0.20;;;9.00;99.90;;;;;;5054841;28;20025;-86
2023/11/10 10:05:14;;;;;;;2.22;0.75;;;9.10;99.90;;;;;;5054891;28;20520;-87
2023/11/10 10:07:40;;;;;;;2.60;0.30;;;9.10;99.90;;;;;;5053761;28;20025;-88
2023/11/10 10:10:10;;;;;;;3.53;0.63;;;9.10;99.90;;;;;;5066993;28;20071;-88
2023/11/10 10:12:37;;;;;;;5.00;0.80;;;9.10;99.90;;;;;;5053790;28;20021;-87
2023/11/10 10:15:02;;;;;;;7.00;2.03;;;9.10;99.90;;;;;;5054762;28;20017;-88
2023/11/10 10:17:37;;;;;;;3.20;0.98;;;9.20;99.90;;;;;;5054567;28;20028;-87
2023/11/10 10:20:14;;;;;;;1.77;0.47;;;9.30;99.90;;;;;;5054918;28;20017;-87
2023/11/10 10:22:49;;;;;;;3.55;0.35;;;9.30;99.90;;;;;;5054021;28;20021;-86
2023/11/10 10:25:16;;;;;;;3.45;0.73;;;9.30;99.90;;;;;;5054819;28;20021;-86
2023/11/10 10:27:46;;;;;;;0.82;0.35;;;9.40;99.90;;;;;;5053952;28;20029;-88
2023/11/10 10:30:23;;;;;;;;;;;;;;;;;;;;;
2023/11/10 10:33:01;;;;;;;0.57;0.32;;;9.40;99.90;;;;;;5057287;28;20112;-88
2023/11/10 10:35:35;;;;;;;2.05;0.63;;;9.30;99.90;;;;;;5054445;28;20025;-86
2023/11/10 10:38:39;;;;;;;2.78;0.50;;;9.30;99.90;;;;;;5041821;28;20446;-88
2023/11/10 10:41:06;;;;;;;1.10;0.40;;;9.30;99.90;;;;;;5034612;28;20524;-85
2023/11/10 10:43:33;;;;;;;1.25;0.35;;;9.30;99.90;;;;;;5044564;28;20029;-85
2023/11/10 10:46:00;;;;;;;2.97;0.57;;;9.40;99.90;;;;;;5047796;28;20018;-85
2023/11/10 10:48:28;;;;;;;0.85;0.35;;;9.60;99.90;;;;;;5036244;28;20216;-86
2023/11/10 10:50:56;;;;;;;3.90;0.60;;;9.60;99.90;;;;;;5070523;28;20017;-84
2023/11/10 10:53:22;;;;;;;1.65;0.30;;;9.70;99.90;;;;;;5056034;28;20040;-88
2023/11/10 10:55:52;;;;;;;1.50;0.40;;;9.70;99.90;;;;;;5054803;28;20099;-87
2023/11/10 10:58:23;;;;;;;0.90;0.40;;;9.80;99.90;;;;;;5054039;28;20025;-89
2023/11/10 11:00:49;;;;;;;0.73;0.30;;;9.90;99.90;;;;;;5053959;28;20056;-86
2023/11/10 11:03:39;;;;;;;3.65;0.57;;;10.00;99.90;;;;;;5053761;28;20110;-87
2023/11/10 11:06:20;;;;;;;0.77;0.35;;;10.10;99.90;;;;;;5055020;28;20070;-88
2023/11/10 11:08:59;;;;;;;1.85;0.30;;;10.20;99.90;;;;;;5052961;28;20143;-87
2023/11/10 11:11:59;;;;;;;2.20;0.30;;;10.40;99.90;;;;;;5053841;28;20032;-87
2023/11/10 11:14:40;;;;;;;3.13;0.50;;;10.40;99.90;;;;;;5053473;28;20440;-85
2023/11/10 11:17:47;;;;;;;2.35;0.20;;;10.50;99.90;;;;;;5053721;28;20013;-86
2023/11/10 11:20:16;;;;;;;1.25;0.30;;;10.60;99.90;;;;;;5054425;28;20025;-87
2023/11/10 11:22:43;;;;;;;1.77;0.30;;;10.70;99.90;;;;;;5054887;28;20032;-87
2023/11/10 11:25:12;;;;;;;3.70;0.30;;;10.70;99.90;;;;;;5054579;28;20082;-84
2023/11/10 11:27:38;;;;;;;1.30;0.43;;;10.60;99.90;;;;;;5055831;28;20071;-87
2023/11/10 11:30:11;;;;;;;0.95;0.40;;;10.60;99.90;;;;;;5055417;28;20025;-87
2023/11/10 11:32:41;;;;;;;0.50;0.20;;;10.60;99.90;;;;;;5054085;28;20033;-88
2023/11/10 11:35:16;;;;;;;1.70;0.20;;;10.60;99.90;;;;;;5053630;28;20055;-87
2023/11/10 11:37:43;;;;;;;3.13;0.50;;;10.60;99.90;;;;;;5054275;28;20155;-88
2023/11/10 11:40:11;;;;;;;2.53;0.30;;;10.60;99.90;;;;;;5054813;28;20549;-89
2023/11/10 11:42:43;;;;;;;5.35;0.40;;;10.60;99.90;;;;;;5053361;28;20477;-89
2023/11/10 11:45:13;;;;;;;3.40;0.25;;;10.70;99.90;;;;;;5055216;28;20037;-88
2023/11/10 11:47:40;;;;;;;1.50;0.32;;;10.90;99.90;;;;;;5055883;28;20029;-89
2023/11/10 11:50:07;;;;;;;1.77;0.40;;;11.00;99.90;;;;;;5054251;28;20028;-89
2023/11/10 11:52:33;;;;;;;3.70;0.38;;;11.20;99.90;;;;;;5053781;28;20021;-88
2023/11/10 11:54:59;;;;;;;0.70;0.30;;;11.30;99.90;;;;;;5053679;28;20456;-84
2023/11/10 11:57:25;;;;;;;3.22;0.30;;;11.50;99.90;;;;;;5053083;28;20025;-86
2023/11/10 11:59:50;;;;;;;2.10;0.30;;;11.50;99.90;;;;;;5052264;28;20017;-84
2023/11/10 12:02:19;;;;;;;2.45;0.30;;;11.40;99.90;;;;;;5053282;28;20377;-83
2023/11/10 12:04:45;;;;;;;3.15;0.30;;;11.30;99.90;;;;;;5052732;28;20029;-84
2023/11/10 12:07:11;;;;;;;0.35;0.20;;;11.00;99.90;;;;;;5054296;28;20025;-85
2023/11/10 12:09:37;;;;;;;3.25;0.45;;;10.90;99.90;;;;;;5046449;28;20047;-85
2023/11/10 12:12:03;;;;;;;1.17;0.20;;;10.90;99.90;;;;;;5047190;28;20023;-84
2023/11/10 12:14:30;;;;;;;0.75;0.30;;;10.80;99.90;;;;;;5035368;28;20032;-85
2023/11/10 12:16:56;;;;;;;1.67;0.35;;;10.90;99.90;;;;;;5054339;28;20017;-87
2023/11/10 12:19:23;;;;;;;2.70;0.43;;;11.00;99.90;;;;;;5056331;28;20078;-88
2023/11/10 12:21:50;;;;;;;1.65;0.20;;;11.00;99.90;;;;;;5042509;28;20025;-86
2023/11/10 12:24:19;;;;;;;0.98;0.30;;;10.80;99.90;;;;;;5038545;28;20030;-87
2023/11/10 12:26:47;;;;;;;0.35;0.20;;;10.90;99.90;;;;;;5037166;28;20090;-86
2023/11/10 12:29:17;;;;;;;0.38;0.20;;;11.00;99.90;;;;;;5036569;28;20052;-85
2023/11/10 12:31:43;;;;;;;1.25;0.30;;;11.20;99.90;;;;;;5041276;28;20029;-86
2023/11/10 12:34:09;;;;;;;1.48;0.20;;;11.10;99.90;;;;;;5057240;28;20082;-86
2023/11/10 12:36:37;;;;;;;3.35;0.32;;;11.20;99.90;;;;;;5056549;28;20025;-86
2023/11/10 12:39:10;;;;;;;3.03;0.40;;;11.30;99.90;;;;;;5056416;28;20021;-84
2023/11/10 12:41:36;;;;;;;1.25;0.32;;;11.50;99.90;;;;;;5055897;28;20052;-84
2023/11/10 12:44:02;;;;;;;0.80;0.22;;;11.50;99.90;;;;;;5055807;28;20056;-83
2023/11/10 12:46:28;;;;;;;1.85;0.30;;;11.50;99.90;;;;;;5038559;28;20026;-84
2023/11/10 12:48:55;;;;;;;1.52;0.45;;;12.10;99.90;;;;;;5051418;28;20018;-83
2023/11/10 12:51:23;;;;;;;2.58;0.50;;;12.80;99.90;;;;;;5044137;28;20017;-88
2023/11/10 12:54:06;;;;;;;2.58;0.40;;;12.90;99.90;;;;;;5044858;28;20404;-86
2023/11/10 12:56:31;;;;;;;;;;;12.90;99.90;;;;;;5056137;28;20136;-85
2023/11/10 12:59:06;;;;;;;0.75;0.25;;;12.80;99.90;;;;;;5042509;28;20349;-91